createdAt,value
2018-09-10T00:03:44.074Z,14.00
2018-09-10T00:08:49.624Z,13.90
2018-09-10T00:13:52.623Z,13.90
2018-09-10T00:18:55.652Z,13.80
2018-09-10T00:23:58.801Z,13.70
2018-09-10T00:29:01.862Z,13.70
2018-09-10T00:34:04.897Z,13.70
2018-09-10T00:39:10.731Z,13.60
2018-09-10T00:44:13.779Z,13.60
2018-09-10T00:49:16.859Z,13.50
2018-09-10T00:54:19.895Z,13.50
2018-09-10T00:59:23.089Z,13.40
2018-09-10T01:04:26.240Z,13.40
2018-09-10T01:09:29.297Z,13.30
2018-09-10T01:14:32.479Z,13.20
2018-09-10T01:19:35.687Z,13.20
2018-09-10T01:24:38.848Z,13.20
2018-09-10T01:29:41.847Z,13.20
2018-09-10T01:34:50.320Z,13.30
2018-09-10T01:39:53.398Z,13.30
2018-09-10T01:44:56.740Z,13.20
2018-09-10T01:49:59.908Z,13.20
2018-09-10T01:55:02.964Z,13.10
2018-09-10T02:00:06.129Z,13.00
2018-09-10T02:05:09.202Z,13.00
2018-09-10T02:10:12.234Z,13.10
2018-09-10T02:15:15.399Z,13.10
2018-09-10T02:20:18.441Z,13.20
2018-09-10T02:25:21.642Z,13.30
2018-09-10T02:30:24.885Z,13.40
2018-09-10T02:35:27.941Z,13.40
2018-09-10T02:40:30.986Z,13.40
2018-09-10T02:45:34.199Z,13.50
2018-09-10T02:50:37.219Z,13.50
2018-09-10T02:55:40.273Z,13.60
2018-09-10T03:00:43.429Z,13.50
2018-09-10T03:05:46.573Z,13.60
2018-09-10T03:10:49.634Z,13.60
2018-09-10T03:15:52.767Z,13.60
2018-09-10T03:20:55.896Z,13.60
2018-09-10T03:25:58.895Z,13.70
2018-09-10T03:31:02.037Z,13.70
2018-09-10T03:36:05.101Z,13.70
2018-09-10T03:41:08.136Z,13.60
2018-09-10T03:46:11.255Z,13.60
2018-09-10T03:51:14.263Z,13.50
2018-09-10T03:56:17.323Z,13.40
2018-09-10T04:01:20.367Z,13.30
2018-09-10T04:06:23.407Z,13.20
2018-09-10T04:11:26.487Z,13.20
2018-09-10T04:16:29.611Z,13.20
2018-09-10T04:21:32.639Z,13.10
2018-09-10T04:26:35.726Z,13.10
2018-09-10T04:31:38.746Z,13.10
2018-09-10T04:36:41.794Z,13.10
2018-09-10T04:41:44.803Z,13.20
2018-09-10T04:46:47.919Z,13.20
2018-09-10T04:51:51.088Z,13.30
2018-09-10T04:56:54.203Z,13.30
2018-09-10T05:01:57.214Z,13.40
2018-09-10T05:07:00.287Z,13.50
2018-09-10T05:12:03.323Z,13.60
2018-09-10T05:17:06.444Z,13.80
2018-09-10T05:22:09.725Z,13.90
2018-09-10T05:27:12.662Z,14.00
2018-09-10T05:32:15.683Z,14.20
2018-09-10T05:37:18.694Z,14.30
2018-09-10T05:42:21.797Z,14.40
2018-09-10T05:47:24.868Z,14.60
2018-09-10T05:52:28.180Z,14.60
2018-09-10T05:57:31.266Z,14.70
2018-09-10T06:02:34.347Z,14.70
2018-09-10T06:07:37.419Z,14.80
2018-09-10T06:12:40.474Z,14.80
2018-09-10T06:17:43.513Z,14.90
2018-09-10T06:22:46.560Z,14.90
2018-09-10T06:27:49.631Z,15.00
2018-09-10T06:32:52.723Z,15.10
2018-09-10T06:37:55.777Z,15.60
2018-09-10T06:42:58.859Z,16.70
2018-09-10T06:48:02.066Z,18.70
2018-09-10T06:53:05.282Z,20.50
2018-09-10T06:58:08.315Z,21.20
2018-09-10T07:03:11.434Z,21.90
2018-09-10T07:08:14.450Z,22.40
2018-09-10T07:13:17.542Z,22.50
2018-09-10T07:18:20.719Z,23.30
2018-09-10T07:23:23.784Z,24.60
2018-09-10T07:28:26.865Z,24.90
2018-09-10T07:33:29.937Z,25.80
2018-09-10T07:38:32.992Z,27.00
2018-09-10T07:43:36.115Z,27.30
2018-09-10T07:48:39.196Z,27.90
2018-09-10T07:53:42.330Z,28.30
2018-09-10T07:58:45.365Z,28.70
2018-09-10T08:03:48.452Z,29.20
2018-09-10T08:08:51.621Z,29.70
2018-09-10T08:13:54.647Z,29.80
2018-09-10T08:18:57.846Z,29.60
2018-09-10T08:24:00.927Z,30.30
2018-09-10T08:29:03.906Z,31.00
2018-09-10T08:34:06.983Z,30.30
2018-09-10T08:39:10.026Z,29.90
2018-09-10T08:44:13.061Z,29.00
2018-09-10T08:49:16.065Z,28.00
2018-09-10T08:54:19.235Z,27.40
2018-09-10T08:59:22.111Z,26.90
2018-09-10T09:04:25.187Z,26.80
2018-09-10T09:09:28.227Z,26.60
2018-09-10T09:14:31.272Z,26.50
2018-09-10T09:19:34.284Z,26.50
2018-09-10T09:24:37.343Z,26.40
2018-09-10T09:29:40.501Z,26.40
2018-09-10T09:34:48.941Z,26.20
2018-09-10T09:39:57.412Z,26.10
2018-09-10T09:45:05.841Z,25.80
2018-09-10T09:50:09.006Z,25.50
2018-09-10T09:55:12.077Z,25.40
2018-09-10T10:00:15.104Z,25.50
2018-09-10T10:05:18.184Z,25.60
2018-09-10T10:10:21.531Z,25.50
2018-09-10T10:15:24.697Z,25.40
2018-09-10T10:20:27.770Z,25.50
2018-09-10T10:25:30.792Z,25.60
2018-09-10T10:30:33.813Z,25.90
2018-09-10T10:35:36.859Z,26.10
2018-09-10T10:40:39.894Z,26.20
2018-09-10T10:45:42.984Z,26.20
2018-09-10T10:50:46.016Z,26.00
2018-09-10T10:55:49.084Z,26.20
2018-09-10T11:00:52.127Z,26.30
2018-09-10T11:05:55.256Z,26.50
2018-09-10T11:10:58.332Z,26.40
2018-09-10T11:16:01.639Z,26.20
2018-09-10T11:21:04.914Z,26.10
2018-09-10T11:26:08.161Z,26.00
2018-09-10T11:31:11.441Z,26.20
2018-09-10T11:36:14.787Z,26.30
2018-09-10T11:41:18.968Z,26.20
2018-09-10T11:46:22.353Z,25.90
2018-09-10T11:51:25.753Z,25.90
2018-09-10T11:56:28.948Z,26.20
2018-09-10T12:01:32.032Z,26.30
2018-09-10T12:06:35.032Z,26.20
2018-09-10T12:11:38.053Z,26.00
2018-09-10T12:16:41.153Z,26.00
2018-09-10T12:21:44.197Z,26.30
2018-09-10T12:26:47.233Z,26.40
2018-09-10T12:31:50.282Z,26.60
2018-09-10T12:36:53.320Z,26.60
2018-09-10T12:41:56.454Z,26.50
2018-09-10T12:46:59.470Z,26.40
2018-09-10T12:52:02.547Z,26.30
2018-09-10T12:57:06.008Z,26.40
2018-09-10T13:02:09.052Z,26.50
2018-09-10T13:07:12.173Z,26.70
2018-09-10T13:12:15.220Z,26.80
2018-09-10T13:17:18.289Z,26.70
2018-09-10T13:22:22.241Z,26.50
2018-09-10T13:27:25.277Z,26.30
2018-09-10T13:32:28.405Z,26.20
2018-09-10T13:37:31.473Z,26.10
2018-09-10T13:42:34.534Z,26.00
2018-09-10T13:47:37.589Z,25.90
2018-09-10T13:52:40.704Z,25.80
2018-09-10T13:57:43.877Z,25.50
2018-09-10T14:02:47.030Z,25.30
2018-09-10T14:07:50.096Z,25.10
2018-09-10T14:12:53.132Z,24.90
2018-09-10T14:17:56.183Z,24.90
2018-09-10T14:22:59.289Z,25.00
2018-09-10T14:28:02.360Z,25.10
2018-09-10T14:33:05.406Z,25.10
2018-09-10T14:38:08.460Z,25.20
2018-09-10T14:43:11.686Z,25.40
2018-09-10T14:48:14.799Z,25.40
2018-09-10T14:53:17.810Z,25.50
2018-09-10T14:58:20.880Z,25.40
2018-09-10T15:03:23.984Z,25.20
2018-09-10T15:08:27.061Z,25.20
2018-09-10T15:13:33.904Z,25.00
2018-09-10T15:18:37.001Z,24.80
2018-09-10T15:23:40.028Z,24.90
2018-09-10T15:28:44.150Z,24.70
2018-09-10T15:33:47.183Z,24.60
2018-09-10T15:38:50.217Z,24.40
2018-09-10T15:43:53.233Z,24.20
2018-09-10T15:48:56.349Z,24.10
2018-09-10T15:53:59.375Z,23.90
2018-09-10T15:59:03.100Z,23.80
2018-09-10T16:04:06.125Z,23.70
2018-09-10T16:09:09.435Z,23.60
2018-09-10T16:14:12.495Z,23.50
2018-09-10T16:19:15.551Z,23.40
2018-09-10T16:24:18.652Z,23.30
2018-09-10T16:29:21.753Z,23.20
2018-09-10T16:34:24.778Z,23.10
2018-09-10T16:39:27.836Z,22.90
2018-09-10T16:44:30.959Z,22.80
2018-09-10T16:49:33.992Z,22.70
2018-09-10T16:54:37.165Z,22.60
2018-09-10T16:59:40.195Z,22.40
2018-09-10T17:04:43.191Z,22.30
2018-09-10T17:09:46.324Z,22.20
2018-09-10T17:14:49.523Z,22.00
2018-09-10T17:19:52.537Z,21.80
2018-09-10T17:24:55.573Z,21.70
2018-09-10T17:29:58.772Z,21.50
2018-09-10T17:35:01.819Z,21.40
2018-09-10T17:40:04.878Z,21.20
2018-09-10T17:45:07.944Z,21.10
2018-09-10T17:50:11.027Z,21.00
2018-09-10T17:55:14.121Z,20.90
2018-09-10T18:00:17.354Z,20.90
2018-09-10T18:05:20.879Z,20.90
2018-09-10T18:10:23.962Z,21.00
2018-09-10T18:15:27.006Z,21.10
2018-09-10T18:20:30.070Z,21.10
2018-09-10T18:25:33.120Z,21.30
2018-09-10T18:30:36.230Z,21.40
2018-09-10T18:35:39.494Z,21.30
2018-09-10T18:40:42.474Z,21.30
2018-09-10T18:45:45.500Z,21.20
2018-09-10T18:50:48.593Z,21.10
2018-09-10T18:55:51.656Z,21.10
2018-09-10T19:00:54.775Z,21.10
2018-09-10T19:05:57.852Z,21.00
2018-09-10T19:11:00.955Z,20.90
2018-09-10T19:16:03.995Z,20.70
2018-09-10T19:21:07.456Z,20.60
2018-09-10T19:26:10.540Z,20.60
2018-09-10T19:31:20.140Z,20.50
2018-09-10T19:36:23.429Z,20.50
2018-09-10T19:41:26.476Z,20.40
2018-09-10T19:46:29.548Z,20.30
2018-09-10T19:51:32.775Z,20.20
2018-09-10T19:56:35.846Z,20.10
2018-09-10T20:01:38.973Z,20.00
2018-09-10T20:06:42.032Z,19.90
2018-09-10T20:11:45.097Z,19.80
2018-09-10T20:16:48.131Z,19.80
2018-09-10T20:21:51.343Z,19.70
2018-09-10T20:26:54.537Z,19.70
2018-09-10T20:31:57.697Z,19.70
2018-09-10T20:42:18.340Z,19.60
2018-09-10T20:47:21.411Z,19.50
2018-09-10T20:52:24.422Z,19.40
2018-09-10T20:57:27.957Z,19.30
2018-09-10T21:02:30.963Z,19.20
2018-09-10T21:07:34.183Z,19.10
2018-09-10T21:12:37.210Z,19.00
2018-09-10T21:17:41.309Z,19.00
2018-09-10T21:22:44.392Z,18.90
2018-09-10T21:27:47.411Z,18.90
2018-09-10T21:32:50.436Z,18.80
2018-09-10T21:37:53.500Z,18.80
2018-09-10T21:42:56.690Z,18.70
2018-09-10T21:47:59.723Z,18.70
2018-09-10T21:53:02.818Z,18.70
2018-09-10T21:58:05.865Z,18.70
2018-09-10T22:03:08.956Z,18.70
2018-09-10T22:08:12.035Z,18.70
2018-09-10T22:13:15.081Z,18.70
2018-09-10T22:18:18.144Z,18.70
2018-09-10T22:23:21.280Z,18.70
2018-09-10T22:28:24.314Z,18.60
2018-09-10T22:33:27.505Z,18.60
2018-09-10T22:38:30.528Z,18.60
2018-09-10T22:43:33.527Z,18.60
2018-09-10T22:48:36.633Z,18.60
2018-09-10T22:53:39.657Z,18.60
2018-09-10T22:58:42.731Z,18.60
2018-09-10T23:03:45.779Z,18.60
2018-09-10T23:08:49.197Z,18.50
2018-09-10T23:13:52.223Z,18.60
2018-09-10T23:18:55.294Z,18.60
2018-09-10T23:23:58.420Z,18.50
2018-09-10T23:29:01.638Z,18.50
2018-09-10T23:34:04.666Z,18.40
2018-09-10T23:39:08.392Z,18.40
2018-09-10T23:44:11.452Z,18.40
2018-09-10T23:49:14.595Z,18.40
2018-09-10T23:54:17.672Z,18.40
2018-09-10T23:59:20.689Z,18.30
